Cosco Kaohsiung — VREM3 — position and weather

sailwx.info

Track history (hours):
 
Tides and Currents Weather Stations Pressure Air Temp Water Temp Dewpoint Dewpoint Depression Visibility Wind Speed Wind Dir Waves Ship Positions

Cosco Kaohsiung

Last reported at 2015-Jun-28 14:32 UTC. Time now 2015-Jul-08 02:18 UTC.
Position N 31°18' E 121°47'.
Warning: this ship's position is 9 days out of date.

Length 349 m; draft 11.8 m.

Type: Ship (hazmat cat A). MMSI: 477136800.

Date/timePositionNaut miles runAvg speedWind from/ knotsBaromVisibWave heightAir tempDewpointWater temp
2015-Jun-28 14:32N 31°18' E 121°47'1111.3
2015-Jun-28 13:33N 31°23' E 121°36'1 0.6
2015-Jun-28 12:21N 31°22' E 121°35'0 0.1
2015-Jun-28 11:33N 31°22' E 121°35'0 0.0
2015-Jun-28 10:28N 31°22' E 121°35'0 0.0
2015-Jun-28 09:33N 31°22' E 121°35'0 0.0
2015-Jun-28 08:21N 31°22' E 121°35'0 0.0
2015-Jun-28 07:33N 31°22' E 121°35'0 0.0
2015-Jun-28 06:33N 31°22' E 121°35'0 0.1
2015-Jun-28 05:33N 31°22' E 121°35'0 0.1
2015-Jun-28 04:33N 31°22' E 121°35'0 0.0
2015-Jun-28 03:33N 31°22' E 121°35'0 0.0
2015-Jun-28 02:27N 31°22' E 121°35'0 0.0
2015-Jun-28 01:33N 31°22' E 121°35'0 0.0
2015-Jun-28 00:27N 31°22' E 121°35'0 0.0
2015-Jun-27 23:15N 31°22' E 121°35'0 0.0
2015-Jun-27 22:21N 31°22' E 121°35'0 0.0
2015-Jun-27 21:33N 31°22' E 121°35'0 0.0
2015-Jun-27 20:27N 31°22' E 121°35'0 0.0
2015-Jun-27 18:27N 31°22' E 121°35'0 0.0
2015-Jun-27 17:15N 31°22' E 121°35'0 0.0
2015-Jun-27 16:27N 31°22' E 121°35'0 0.0
2015-Jun-27 15:27N 31°22' E 121°35'0 0.0
2015-Jun-27 14:33N 31°22' E 121°35'0 0.0
2015-Jun-27 13:03N 31°22' E 121°35'0 1.0
2015-Jun-27 12:33N 31°23' E 121°35'8 8.2
2015-Jun-27 11:33N 31°19' E 121°44'1110.7
2015-Jun-27 10:33N 31°15' E 121°56'45 2.5
2015-Jun-26 16:15N 31°02' E 122°46'0 0.0
2015-Jun-26 11:33N 31°02' E 122°46'0 0.1
2015-Jun-26 10:27N 31°02' E 122°46'22 2.0
2015-Jun-25 23:22N 30°42' E 122°55'4 4.5
2015-Jun-25 22:33N 30°39' E 122°56'5 4.9
2015-Jun-25 21:32N 30°34' E 122°59'6 4.9
2015-Jun-25 20:24N 30°29' E 123°01'4 5.2
2015-Jun-25 19:32N 30°25' E 123°02'5 5.1
2015-Jun-25 18:33N 30°20' E 123°04'5 5.1
2015-Jun-25 17:33N 30°14' E 123°04'6 4.8
2015-Jun-25 16:17N 30°08' E 123°03'10 4.6
2015-Jun-25 14:09N 29°59' E 123°04'60 6.3
2015-Jun-25 04:33N 29°01' E 122°42'327 9.9
2015-Jun-23 19:32N 24°31' E 119°16'813.2
2015-Jun-23 18:57N 24°27' E 119°09'30513.0
2015-Jun-22 19:33N 22°20' E 114°07'0 0.3
2015-Jun-22 18:09N 22°20' E 114°08'0 0.0
2015-Jun-22 17:33N 22°20' E 114°08'0 0.0
2015-Jun-22 16:21N 22°20' E 114°08'0 0.0
2015-Jun-22 15:24N 22°20' E 114°08'0 0.0
2015-Jun-22 14:27N 22°20' E 114°08'0 0.0
2015-Jun-22 13:30N 22°20' E 114°08'0 0.0
2015-Jun-22 12:30N 22°20' E 114°08'0 0.0
2015-Jun-22 11:33N 22°20' E 114°08'0 0.0
2015-Jun-22 10:30N 22°20' E 114°08'0 0.0
2015-Jun-22 09:33N 22°20' E 114°08'0 0.0
2015-Jun-22 08:30N 22°20' E 114°08'0 0.0
2015-Jun-22 07:33N 22°20' E 114°08'0 0.0
2015-Jun-22 06:33N 22°20' E 114°08'0 0.0
2015-Jun-22 03:18N 22°20' E 114°08'0 0.0
2015-Jun-22 02:09N 22°20' E 114°08'0 0.0
2015-Jun-22 01:30N 22°20' E 114°08'1 0.7
2015-Jun-22 00:33N 22°19' E 114°07'7 7.2
2015-Jun-21 23:33N 22°13' E 114°10'8 8.3
2015-Jun-21 22:33N 22°09' E 114°18'8 7.8
2015-Jun-21 21:32N 22°02' E 114°24'  
Track history (hours):
 
Tides and Currents Weather Stations Pressure Air Temp Water Temp Dewpoint Dewpoint Depression Visibility Wind Speed Wind Dir Waves Ship Positions

Cosco Kaohsiung

Last reported at 2015-Jun-28 14:32 UTC. Time now 2015-Jul-08 02:18 UTC.
Position N 31°18' E 121°47'.
Warning: this ship's position is 9 days out of date.

Length 349 m; draft 11.8 m.

Type: Ship (hazmat cat A). MMSI: 477136800.

Date/timePositionNaut miles runAvg speedWind from/ knotsBaromVisibWave heightAir tempDewpointWater temp
2015-Jun-28 14:32N 31°18' E 121°47'1111.3
2015-Jun-28 13:33N 31°23' E 121°36'1 0.6
2015-Jun-28 12:21N 31°22' E 121°35'0 0.1
2015-Jun-28 11:33N 31°22' E 121°35'0 0.0
2015-Jun-28 10:28N 31°22' E 121°35'0 0.0
2015-Jun-28 09:33N 31°22' E 121°35'0 0.0
2015-Jun-28 08:21N 31°22' E 121°35'0 0.0
2015-Jun-28 07:33N 31°22' E 121°35'0 0.0
2015-Jun-28 06:33N 31°22' E 121°35'0 0.1
2015-Jun-28 05:33N 31°22' E 121°35'0 0.1
2015-Jun-28 04:33N 31°22' E 121°35'0 0.0
2015-Jun-28 03:33N 31°22' E 121°35'0 0.0
2015-Jun-28 02:27N 31°22' E 121°35'0 0.0
2015-Jun-28 01:33N 31°22' E 121°35'0 0.0
2015-Jun-28 00:27N 31°22' E 121°35'0 0.0
2015-Jun-27 23:15N 31°22' E 121°35'0 0.0
2015-Jun-27 22:21N 31°22' E 121°35'0 0.0
2015-Jun-27 21:33N 31°22' E 121°35'0 0.0
2015-Jun-27 20:27N 31°22' E 121°35'0 0.0
2015-Jun-27 18:27N 31°22' E 121°35'0 0.0
2015-Jun-27 17:15N 31°22' E 121°35'0 0.0
2015-Jun-27 16:27N 31°22' E 121°35'0 0.0
2015-Jun-27 15:27N 31°22' E 121°35'0 0.0
2015-Jun-27 14:33N 31°22' E 121°35'0 0.0
2015-Jun-27 13:03N 31°22' E 121°35'0 1.0
2015-Jun-27 12:33N 31°23' E 121°35'8 8.2
2015-Jun-27 11:33N 31°19' E 121°44'1110.7
2015-Jun-27 10:33N 31°15' E 121°56'45 2.5
2015-Jun-26 16:15N 31°02' E 122°46'0 0.0
2015-Jun-26 11:33N 31°02' E 122°46'0 0.1
2015-Jun-26 10:27N 31°02' E 122°46'22 2.0
2015-Jun-25 23:22N 30°42' E 122°55'4 4.5
2015-Jun-25 22:33N 30°39' E 122°56'5 4.9
2015-Jun-25 21:32N 30°34' E 122°59'6 4.9
2015-Jun-25 20:24N 30°29' E 123°01'4 5.2
2015-Jun-25 19:32N 30°25' E 123°02'5 5.1
2015-Jun-25 18:33N 30°20' E 123°04'5 5.1
2015-Jun-25 17:33N 30°14' E 123°04'6 4.8
2015-Jun-25 16:17N 30°08' E 123°03'10 4.6
2015-Jun-25 14:09N 29°59' E 123°04'60 6.3
2015-Jun-25 04:33N 29°01' E 122°42'327 9.9
2015-Jun-23 19:32N 24°31' E 119°16'813.2
2015-Jun-23 18:57N 24°27' E 119°09'30513.0
2015-Jun-22 19:33N 22°20' E 114°07'0 0.3
2015-Jun-22 18:09N 22°20' E 114°08'0 0.0
2015-Jun-22 17:33N 22°20' E 114°08'0 0.0
2015-Jun-22 16:21N 22°20' E 114°08'0 0.0
2015-Jun-22 15:24N 22°20' E 114°08'0 0.0
2015-Jun-22 14:27N 22°20' E 114°08'0 0.0
2015-Jun-22 13:30N 22°20' E 114°08'0 0.0
2015-Jun-22 12:30N 22°20' E 114°08'0 0.0
2015-Jun-22 11:33N 22°20' E 114°08'0 0.0
2015-Jun-22 10:30N 22°20' E 114°08'0 0.0
2015-Jun-22 09:33N 22°20' E 114°08'0 0.0
2015-Jun-22 08:30N 22°20' E 114°08'0 0.0
2015-Jun-22 07:33N 22°20' E 114°08'0 0.0
2015-Jun-22 06:33N 22°20' E 114°08'0 0.0
2015-Jun-22 03:18N 22°20' E 114°08'0 0.0
2015-Jun-22 02:09N 22°20' E 114°08'0 0.0
2015-Jun-22 01:30N 22°20' E 114°08'1 0.7
2015-Jun-22 00:33N 22°19' E 114°07'7 7.2
2015-Jun-21 23:33N 22°13' E 114°10'8 8.3
2015-Jun-21 22:33N 22°09' E 114°18'8 7.8
2015-Jun-21 21:32N 22°02' E 114°24'  

Dump ship's entire track history